sensor_id;sensor_type;location;lat;lon;timestamp;temperature;humidity
8152;DHT22;4117;53.622;9.958;2024-01-15T00:01:12;1.10;1.00
8152;DHT22;4117;53.622;9.958;2024-01-15T00:03:41;1.00;1.00
8152;DHT22;4117;53.622;9.958;2024-01-15T00:06:08;1.10;1.00
8152;DHT22;4117;53.622;9.958;2024-01-15T00:08:35;1.10;1.00
8152;DHT22;4117;53.622;9.958;2024-01-15T00:11:02;1.10;1.00
8152;DHT22;4117;53.622;9.958;2024-01-15T00:13:29;1.10;1.00
8152;DHT22;4117;53.622;9.958;2024-01-15T00:15:56;1.10;1.00
8152;DHT22;4117;53.622;9.958;2024-01-15T00:18:23;1.10;1.00
8152;DHT22;4117;53.622;9.958;2024-01-15T00:20:51;1.00;1.00
8152;DHT22;4117;53.622;9.958;2024-01-15T00:23:18;1.10;1.00
8152;DHT22;4117;53.622;9.958;2024-01-15T00:25:45;1.00;1.00
8152;DHT22;4117;53.622;9.958;2024-01-15T00:28:12;1.00;1.00
8152;DHT22;4117;53.622;9.958;2024-01-15T00:30:39;1.00;1.00
8152;DHT22;4117;53.622;9.958;2024-01-15T00:33:06;1.00;1.00
8152;DHT22;4117;53.622;9.958;2024-01-15T00:35:33;1.00;1.00
8152;DHT22;4117;53.622;9.958;2024-01-15T00:38:01;1.00;1.00
8152;DHT22;4117;53.622;9.958;2024-01-15T00:40:28;1.00;1.00
8152;DHT22;4117;53.622;9.958;2024-01-15T00:42:55;1.00;1.00
8152;DHT22;4117;53.622;9.958;2024-01-15T00:45:22;1.00;1.00
8152;DHT22;4117;53.622;9.958;2024-01-15T00:47:49;1.00;1.00
8152;DHT22;4117;53.622;9.958;2024-01-15T00:50:16;1.00;1.00
8152;DHT22;4117;53.622;9.958;2024-01-15T00:52:43;1.10;1.00
8152;DHT22;4117;53.622;9.958;2024-01-15T00:55:12;1.10;1.00
8152;DHT22;4117;53.622;9.958;2024-01-15T00:57:40;1.10;1.00
8152;DHT22;4117;53.622;9.958;2024-01-15T01:00:07;1.00;1.00
8152;DHT22;4117;53.622;9.958;2024-01-15T01:02:34;1.00;1.00
8152;DHT22;4117;53.622;9.958;2024-01-15T01:05:01;1.00;1.00
8152;DHT22;4117;53.622;9.958;2024-01-15T01:07:29;1.00;1.00
8152;DHT22;4117;53.622;9.958;2024-01-15T01:09:56;1.00;1.00
8152;DHT22;4117;53.622;9.958;2024-01-15T01:12:24;1.00;1.00
8152;DHT22;4117;53.622;9.958;2024-01-15T01:14:51;1.00;1.00
8152;DHT22;4117;53.622;9.958;2024-01-15T01:17:18;1.00;1.00
8152;DHT22;4117;53.622;9.958;2024-01-15T01:19:45;1.00;1.00
8152;DHT22;4117;53.622;9.958;2024-01-15T01:22:12;1.00;1.00
8152;DHT22;4117;53.622;9.958;2024-01-15T01:24:39;1.10;1.00
8152;DHT22;4117;53.622;9.958;2024-01-15T01:27:06;1.10;1.00
8152;DHT22;4117;53.622;9.958;2024-01-15T01:29:35;1.10;1.00
8152;DHT22;4117;53.622;9.958;2024-01-15T01:32:02;1.10;1.00
8152;DHT22;4117;53.622;9.958;2024-01-15T01:34:29;1.10;1.00
8152;DHT22;4117;53.622;9.958;2024-01-15T01:36:56;1.10;1.00
8152;DHT22;4117;53.622;9.958;2024-01-15T01:39:23;1.10;1.00
8152;DHT22;4117;53.622;9.958;2024-01-15T01:41:49;1.10;1.00
8152;DHT22;4117;53.622;9.958;2024-01-15T01:44:16;1.20;1.00
8152;DHT22;4117;53.622;9.958;2024-01-15T01:46:44;1.20;1.00
8152;DHT22;4117;53.622;9.958;2024-01-15T01:49:12;1.30;1.00
8152;DHT22;4117;53.622;9.958;2024-01-15T01:51:39;1.30;1.00
8152;DHT22;4117;53.622;9.958;2024-01-15T01:54:06;1.30;1.00
8152;DHT22;4117;53.622;9.958;2024-01-15T01:56:37;1.30;1.00
8152;DHT22;4117;53.622;9.958;2024-01-15T01:59:04;1.30;1.00
8152;DHT22;4117;53.622;9.958;2024-01-15T02:01:32;1.30;1.00
8152;DHT22;4117;53.622;9.958;2024-01-15T02:04:00;1.40;1.00
8152;DHT22;4117;53.622;9.958;2024-01-15T02:06:27;1.30;1.00
8152;DHT22;4117;53.622;9.958;2024-01-15T02:08:55;1.40;1.00
8152;DHT22;4117;53.622;9.958;2024-01-15T02:11:22;1.30;1.00
8152;DHT22;4117;53.622;9.958;2024-01-15T02:13:49;1.20;1.00
8152;DHT22;4117;53.622;9.958;2024-01-15T02:16:16;1.20;1.00
8152;DHT22;4117;53.622;9.958;2024-01-15T02:18:44;1.20;1.00
8152;DHT22;4117;53.622;9.958;2024-01-15T02:21:13;1.20;1.00
8152;DHT22;4117;53.622;9.958;2024-01-15T02:23:41;1.10;1.00
8152;DHT22;4117;53.622;9.958;2024-01-15T02:26:09;1.00;1.00
8152;DHT22;4117;53.622;9.958;2024-01-15T02:28:36;1.00;1.00
8152;DHT22;4117;53.622;9.958;2024-01-15T02:31:03;1.00;1.00
8152;DHT22;4117;53.622;9.958;2024-01-15T02:33:30;1.10;1.00
8152;DHT22;4117;53.622;9.958;2024-01-15T02:35:57;1.00;1.00
8152;DHT22;4117;53.622;9.958;2024-01-15T02:38:24;1.10;1.00
8152;DHT22;4117;53.622;9.958;2024-01-15T02:40:53;1.10;1.00
8152;DHT22;4117;53.622;9.958;2024-01-15T02:43:20;1.10;1.00
8152;DHT22;4117;53.622;9.958;2024-01-15T02:45:47;1.10;1.00
8152;DHT22;4117;53.622;9.958;2024-01-15T02:48:14;1.10;1.00
8152;DHT22;4117;53.622;9.958;2024-01-15T02:50:41;1.10;1.00
8152;DHT22;4117;53.622;9.958;2024-01-15T02:53:08;1.10;1.00
8152;DHT22;4117;53.622;9.958;2024-01-15T02:55:35;1.10;1.00
8152;DHT22;4117;53.622;9.958;2024-01-15T02:58:03;1.10;1.00
8152;DHT22;4117;53.622;9.958;2024-01-15T03:00:30;1.10;1.00
8152;DHT22;4117;53.622;9.958;2024-01-15T03:02:57;1.10;1.00
8152;DHT22;4117;53.622;9.958;2024-01-15T03:05:24;1.20;1.00
8152;DHT22;4117;53.622;9.958;2024-01-15T03:07:51;1.20;1.00
8152;DHT22;4117;53.622;9.958;2024-01-15T03:10:20;1.10;1.00
8152;DHT22;4117;53.622;9.958;2024-01-15T03:12:47;1.20;1.00
8152;DHT22;4117;53.622;9.958;2024-01-15T03:15:15;1.20;1.00
8152;DHT22;4117;53.622;9.958;2024-01-15T03:17:44;1.20;1.00
8152;DHT22;4117;53.622;9.958;2024-01-15T03:20:11;1.20;1.00
8152;DHT22;4117;53.622;9.958;2024-01-15T03:22:38;1.20;1.00
8152;DHT22;4117;53.622;9.958;2024-01-15T03:25:06;1.20;1.00
8152;DHT22;4117;53.622;9.958;2024-01-15T03:27:34;1.20;1.00
8152;DHT22;4117;53.622;9.958;2024-01-15T03:30:01;1.20;1.00
8152;DHT22;4117;53.622;9.958;2024-01-15T03:32:30;1.20;1.00
8152;DHT22;4117;53.622;9.958;2024-01-15T03:34:57;1.20;1.00
8152;DHT22;4117;53.622;9.958;2024-01-15T03:37:23;1.20;1.00
8152;DHT22;4117;53.622;9.958;2024-01-15T03:39:50;1.20;1.00
8152;DHT22;4117;53.622;9.958;2024-01-15T03:42:17;1.30;1.00
8152;DHT22;4117;53.622;9.958;2024-01-15T03:44:44;1.20;1.00
8152;DHT22;4117;53.622;9.958;2024-01-15T03:47:11;1.20;1.00
8152;DHT22;4117;53.622;9.958;2024-01-15T03:49:40;1.20;1.00
8152;DHT22;4117;53.622;9.958;2024-01-15T03:52:07;1.20;1.00
8152;DHT22;4117;53.622;9.958;2024-01-15T03:54:33;1.20;1.00
8152;DHT22;4117;53.622;9.958;2024-01-15T03:57:00;1.20;1.00
8152;DHT22;4117;53.622;9.958;2024-01-15T03:59:27;1.20;1.00
8152;DHT22;4117;53.622;9.958;2024-01-15T04:01:54;1.20;1.00
8152;DHT22;4117;53.622;9.958;2024-01-15T04:04:21;1.20;1.00
8152;DHT22;4117;53.622;9.958;2024-01-15T04:06:49;1.20;1.00
8152;DHT22;4117;53.622;9.958;2024-01-15T04:09:16;1.20;1.00
8152;DHT22;4117;53.622;9.958;2024-01-15T04:11:43;1.30;1.00
8152;DHT22;4117;53.622;9.958;2024-01-15T04:14:10;1.30;1.00
8152;DHT22;4117;53.622;9.958;2024-01-15T04:16:37;1.30;1.00
8152;DHT22;4117;53.622;9.958;2024-01-15T04:19:04;1.30;1.00
8152;DHT22;4117;53.622;9.958;2024-01-15T04:21:31;1.30;1.00
8152;DHT22;4117;53.622;9.958;2024-01-15T04:23:59;1.30;1.00
8152;DHT22;4117;53.622;9.958;2024-01-15T04:26:26;1.30;1.00
8152;DHT22;4117;53.622;9.958;2024-01-15T04:28:53;1.40;1.00
8152;DHT22;4117;53.622;9.958;2024-01-15T04:31:22;1.30;1.00
8152;DHT22;4117;53.622;9.958;2024-01-15T04:33:49;1.40;1.00
8152;DHT22;4117;53.622;9.958;2024-01-15T04:36:16;1.40;1.00
8152;DHT22;4117;53.622;9.958;2024-01-15T04:38:43;1.50;1.00
8152;DHT22;4117;53.622;9.958;2024-01-15T04:41:12;1.50;1.00
8152;DHT22;4117;53.622;9.958;2024-01-15T04:43:39;1.40;1.00
8152;DHT22;4117;53.622;9.958;2024-01-15T04:46:06;1.50;1.00
8152;DHT22;4117;53.622;9.958;2024-01-15T04:48:33;1.50;1.00
8152;DHT22;4117;53.622;9.958;2024-01-15T04:51:00;1.50;1.00
8152;DHT22;4117;53.622;9.958;2024-01-15T04:53:27;1.60;1.00
8152;DHT22;4117;53.622;9.958;2024-01-15T04:55:54;1.60;1.00
8152;DHT22;4117;53.622;9.958;2024-01-15T04:58:22;1.70;1.00
8152;DHT22;4117;53.622;9.958;2024-01-15T05:00:51;1.70;1.00
8152;DHT22;4117;53.622;9.958;2024-01-15T05:03:18;1.70;1.00
8152;DHT22;4117;53.622;9.958;2024-01-15T05:05:45;1.60;1.00
8152;DHT22;4117;53.622;9.958;2024-01-15T05:08:12;1.60;1.00
8152;DHT22;4117;53.622;9.958;2024-01-15T05:10:39;1.70;1.00
8152;DHT22;4117;53.622;9.958;2024-01-15T05:13:06;1.70;1.00
8152;DHT22;4117;53.622;9.958;2024-01-15T05:15:34;1.70;1.00
8152;DHT22;4117;53.622;9.958;2024-01-15T05:18:01;1.70;1.00
8152;DHT22;4117;53.622;9.958;2024-01-15T05:20:28;1.70;1.00
8152;DHT22;4117;53.622;9.958;2024-01-15T05:22:55;1.70;1.00
8152;DHT22;4117;53.622;9.958;2024-01-15T05:25:22;1.70;1.00
8152;DHT22;4117;53.622;9.958;2024-01-15T05:27:49;1.70;1.00
8152;DHT22;4117;53.622;9.958;2024-01-15T05:30:16;1.70;1.00
8152;DHT22;4117;53.622;9.958;2024-01-15T05:32:44;1.70;1.00
8152;DHT22;4117;53.622;9.958;2024-01-15T05:35:11;1.70;1.00
8152;DHT22;4117;53.622;9.958;2024-01-15T05:37:42;1.70;1.00
8152;DHT22;4117;53.622;9.958;2024-01-15T05:40:10;1.70;1.00
8152;DHT22;4117;53.622;9.958;2024-01-15T05:42:37;1.60;1.00
8152;DHT22;4117;53.622;9.958;2024-01-15T05:45:05;1.70;1.00
8152;DHT22;4117;53.622;9.958;2024-01-15T05:47:32;1.70;1.00
8152;DHT22;4117;53.622;9.958;2024-01-15T05:50:01;1.70;1.00
8152;DHT22;4117;53.622;9.958;2024-01-15T05:52:28;1.70;1.00
8152;DHT22;4117;53.622;9.958;2024-01-15T05:54:54;1.70;1.00
8152;DHT22;4117;53.622;9.958;2024-01-15T05:57:22;1.70;1.00
8152;DHT22;4117;53.622;9.958;2024-01-15T05:59:49;1.70;1.00
8152;DHT22;4117;53.622;9.958;2024-01-15T06:02:16;1.70;1.00
8152;DHT22;4117;53.622;9.958;2024-01-15T06:04:42;1.70;1.00
8152;DHT22;4117;53.622;9.958;2024-01-15T06:07:11;1.70;1.00
8152;DHT22;4117;53.622;9.958;2024-01-15T06:09:38;1.70;1.00
8152;DHT22;4117;53.622;9.958;2024-01-15T06:12:06;1.80;1.00
8152;DHT22;4117;53.622;9.958;2024-01-15T06:14:33;1.80;1.00
8152;DHT22;4117;53.622;9.958;2024-01-15T06:17:00;1.90;1.00
8152;DHT22;4117;53.622;9.958;2024-01-15T06:19:27;1.80;1.00
8152;DHT22;4117;53.622;9.958;2024-01-15T06:21:54;1.80;1.00
8152;DHT22;4117;53.622;9.958;2024-01-15T06:24:22;1.80;1.00
8152;DHT22;4117;53.622;9.958;2024-01-15T06:26:49;1.80;1.00
8152;DHT22;4117;53.622;9.958;2024-01-15T06:29:16;1.80;1.00
8152;DHT22;4117;53.622;9.958;2024-01-15T06:31:43;1.80;1.00
8152;DHT22;4117;53.622;9.958;2024-01-15T06:34:10;1.80;1.00
8152;DHT22;4117;53.622;9.958;2024-01-15T06:36:37;1.80;1.00
8152;DHT22;4117;53.622;9.958;2024-01-15T06:39:03;1.80;1.00
8152;DHT22;4117;53.622;9.958;2024-01-15T06:41:32;1.80;1.00
8152;DHT22;4117;53.622;9.958;2024-01-15T06:43:59;1.80;1.00
8152;DHT22;4117;53.622;9.958;2024-01-15T06:46:26;1.90;1.00
8152;DHT22;4117;53.622;9.958;2024-01-15T06:48:52;1.90;1.00
8152;DHT22;4117;53.622;9.958;2024-01-15T06:51:20;1.90;1.00
8152;DHT22;4117;53.622;9.958;2024-01-15T06:53:47;1.90;1.00
8152;DHT22;4117;53.622;9.958;2024-01-15T06:56:13;1.90;1.00
8152;DHT22;4117;53.622;9.958;2024-01-15T06:58:42;1.90;1.00
8152;DHT22;4117;53.622;9.958;2024-01-15T07:01:09;1.90;1.00
8152;DHT22;4117;53.622;9.958;2024-01-15T07:03:35;1.90;1.00
8152;DHT22;4117;53.622;9.958;2024-01-15T07:06:03;1.90;1.00
8152;DHT22;4117;53.622;9.958;2024-01-15T07:08:30;1.90;1.00
8152;DHT22;4117;53.622;9.958;2024-01-15T07:10:57;1.90;1.00
8152;DHT22;4117;53.622;9.958;2024-01-15T07:13:24;1.90;1.00
8152;DHT22;4117;53.622;9.958;2024-01-15T07:15:52;1.80;1.00
8152;DHT22;4117;53.622;9.958;2024-01-15T07:18:19;1.80;1.00
8152;DHT22;4117;53.622;9.958;2024-01-15T07:20:46;1.80;1.00
8152;DHT22;4117;53.622;9.958;2024-01-15T07:23:13;1.80;1.00
8152;DHT22;4117;53.622;9.958;2024-01-15T07:25:39;1.80;1.00
8152;DHT22;4117;53.622;9.958;2024-01-15T07:28:06;1.80;1.00
8152;DHT22;4117;53.622;9.958;2024-01-15T07:30:33;1.80;1.00
8152;DHT22;4117;53.622;9.958;2024-01-15T07:33:02;1.80;1.00
8152;DHT22;4117;53.622;9.958;2024-01-15T07:35:29;1.80;1.00
8152;DHT22;4117;53.622;9.958;2024-01-15T07:37:57;1.80;1.00
8152;DHT22;4117;53.622;9.958;2024-01-15T07:40:24;1.80;1.00
8152;DHT22;4117;53.622;9.958;2024-01-15T07:42:51;1.80;1.00
8152;DHT22;4117;53.622;9.958;2024-01-15T07:45:18;1.80;1.00
8152;DHT22;4117;53.622;9.958;2024-01-15T07:47:45;1.80;1.00
8152;DHT22;4117;53.622;9.958;2024-01-15T07:50:13;1.80;1.00
8152;DHT22;4117;53.622;9.958;2024-01-15T07:52:40;1.80;1.00
8152;DHT22;4117;53.622;9.958;2024-01-15T07:55:08;1.80;1.00
8152;DHT22;4117;53.622;9.958;2024-01-15T07:57:34;1.80;1.00
8152;DHT22;4117;53.622;9.958;2024-01-15T08:00:03;1.80;1.00
8152;DHT22;4117;53.622;9.958;2024-01-15T08:02:33;1.80;1.00
8152;DHT22;4117;53.622;9.958;2024-01-15T08:05:00;1.80;1.00
8152;DHT22;4117;53.622;9.958;2024-01-15T08:07:28;1.80;1.00
8152;DHT22;4117;53.622;9.958;2024-01-15T08:09:55;1.80;1.00
8152;DHT22;4117;53.622;9.958;2024-01-15T08:12:22;1.80;1.00
8152;DHT22;4117;53.622;9.958;2024-01-15T08:14:49;1.80;1.00
8152;DHT22;4117;53.622;9.958;2024-01-15T08:17:16;1.80;1.00
8152;DHT22;4117;53.622;9.958;2024-01-15T08:19:43;1.80;1.00
8152;DHT22;4117;53.622;9.958;2024-01-15T08:22:10;1.80;1.00
8152;DHT22;4117;53.622;9.958;2024-01-15T08:24:38;1.80;1.00
8152;DHT22;4117;53.622;9.958;2024-01-15T08:27:05;1.90;1.00
8152;DHT22;4117;53.622;9.958;2024-01-15T08:29:32;1.90;1.00
8152;DHT22;4117;53.622;9.958;2024-01-15T08:32:00;1.90;1.00
8152;DHT22;4117;53.622;9.958;2024-01-15T08:34:27;1.80;1.00
8152;DHT22;4117;53.622;9.958;2024-01-15T08:36:54;1.90;1.00
8152;DHT22;4117;53.622;9.958;2024-01-15T08:39:21;1.90;1.00
8152;DHT22;4117;53.622;9.958;2024-01-15T08:41:49;1.90;1.00
8152;DHT22;4117;53.622;9.958;2024-01-15T08:44:16;1.90;1.00
8152;DHT22;4117;53.622;9.958;2024-01-15T08:46:43;1.90;1.00
8152;DHT22;4117;53.622;9.958;2024-01-15T08:49:10;1.90;1.00
8152;DHT22;4117;53.622;9.958;2024-01-15T08:51:37;1.80;1.00
8152;DHT22;4117;53.622;9.958;2024-01-15T08:54:04;1.80;1.00
8152;DHT22;4117;53.622;9.958;2024-01-15T08:56:34;1.80;1.00
8152;DHT22;4117;53.622;9.958;2024-01-15T08:59:02;1.80;1.00
8152;DHT22;4117;53.622;9.958;2024-01-15T09:01:29;1.80;1.00
8152;DHT22;4117;53.622;9.958;2024-01-15T09:03:56;1.80;1.00
8152;DHT22;4117;53.622;9.958;2024-01-15T09:06:23;1.70;1.00
8152;DHT22;4117;53.622;9.958;2024-01-15T09:08:50;1.70;1.00
8152;DHT22;4117;53.622;9.958;2024-01-15T09:11:17;1.60;1.00
8152;DHT22;4117;53.622;9.958;2024-01-15T09:13:44;1.60;1.00
8152;DHT22;4117;53.622;9.958;2024-01-15T09:16:12;1.60;1.00
8152;DHT22;4117;53.622;9.958;2024-01-15T09:18:39;1.60;1.00
8152;DHT22;4117;53.622;9.958;2024-01-15T09:21:06;1.60;1.00
8152;DHT22;4117;53.622;9.958;2024-01-15T09:23:33;1.60;1.00
8152;DHT22;4117;53.622;9.958;2024-01-15T09:26:01;1.60;1.00
8152;DHT22;4117;53.622;9.958;2024-01-15T09:28:28;1.50;1.00
8152;DHT22;4117;53.622;9.958;2024-01-15T09:30:55;1.40;1.00
8152;DHT22;4117;53.622;9.958;2024-01-15T09:33:22;1.40;1.00
8152;DHT22;4117;53.622;9.958;2024-01-15T09:35:49;1.30;1.00
8152;DHT22;4117;53.622;9.958;2024-01-15T09:38:16;1.20;1.00
8152;DHT22;4117;53.622;9.958;2024-01-15T09:40:45;1.20;1.00
8152;DHT22;4117;53.622;9.958;2024-01-15T09:43:13;1.10;1.00
8152;DHT22;4117;53.622;9.958;2024-01-15T09:45:41;1.20;1.00
8152;DHT22;4117;53.622;9.958;2024-01-15T09:48:09;1.10;1.00
8152;DHT22;4117;53.622;9.958;2024-01-15T09:50:37;1.10;1.00
8152;DHT22;4117;53.622;9.958;2024-01-15T09:53:04;1.10;1.00
8152;DHT22;4117;53.622;9.958;2024-01-15T09:55:32;1.10;1.00
8152;DHT22;4117;53.622;9.958;2024-01-15T09:58:00;1.10;1.00
8152;DHT22;4117;53.622;9.958;2024-01-15T10:00:28;1.10;1.00
8152;DHT22;4117;53.622;9.958;2024-01-15T10:02:57;1.00;1.00
8152;DHT22;4117;53.622;9.958;2024-01-15T10:05:26;1.00;1.00
8152;DHT22;4117;53.622;9.958;2024-01-15T10:07:55;1.00;1.00
8152;DHT22;4117;53.622;9.958;2024-01-15T10:10:23;1.00;1.00
8152;DHT22;4117;53.622;9.958;2024-01-15T10:12:53;1.00;1.00
8152;DHT22;4117;53.622;9.958;2024-01-15T10:15:22;1.00;1.00
8152;DHT22;4117;53.622;9.958;2024-01-15T10:17:50;1.00;1.00
8152;DHT22;4117;53.622;9.958;2024-01-15T10:20:17;1.10;1.00
8152;DHT22;4117;53.622;9.958;2024-01-15T10:22:45;1.10;1.00
8152;DHT22;4117;53.622;9.958;2024-01-15T10:25:14;1.10;1.00
8152;DHT22;4117;53.622;9.958;2024-01-15T10:27:42;1.10;1.00
8152;DHT22;4117;53.622;9.958;2024-01-15T10:30:09;1.10;1.00
8152;DHT22;4117;53.622;9.958;2024-01-15T10:32:37;1.10;1.00
8152;DHT22;4117;53.622;9.958;2024-01-15T10:35:04;1.10;1.00
8152;DHT22;4117;53.622;9.958;2024-01-15T10:37:34;1.20;1.00
8152;DHT22;4117;53.622;9.958;2024-01-15T10:40:02;1.20;1.00
8152;DHT22;4117;53.622;9.958;2024-01-15T10:42:32;1.20;1.00
8152;DHT22;4117;53.622;9.958;2024-01-15T10:44:59;1.20;1.00
8152;DHT22;4117;53.622;9.958;2024-01-15T10:47:26;1.20;1.00
8152;DHT22;4117;53.622;9.958;2024-01-15T10:49:53;1.20;1.00
8152;DHT22;4117;53.622;9.958;2024-01-15T10:52:21;1.20;1.00
8152;DHT22;4117;53.622;9.958;2024-01-15T10:54:49;1.20;1.00
8152;DHT22;4117;53.622;9.958;2024-01-15T10:57:17;1.20;1.00
8152;DHT22;4117;53.622;9.958;2024-01-15T10:59:45;1.10;1.00
8152;DHT22;4117;53.622;9.958;2024-01-15T11:02:13;1.20;1.00
8152;DHT22;4117;53.622;9.958;2024-01-15T11:04:40;1.10;1.00
8152;DHT22;4117;53.622;9.958;2024-01-15T11:07:07;1.10;1.00
8152;DHT22;4117;53.622;9.958;2024-01-15T11:09:36;1.20;1.00
8152;DHT22;4117;53.622;9.958;2024-01-15T11:12:08;1.10;1.00
8152;DHT22;4117;53.622;9.958;2024-01-15T11:14:38;1.10;1.00
8152;DHT22;4117;53.622;9.958;2024-01-15T11:17:06;1.20;1.00
8152;DHT22;4117;53.622;9.958;2024-01-15T11:19:37;1.20;1.00
8152;DHT22;4117;53.622;9.958;2024-01-15T11:22:07;1.20;1.00
8152;DHT22;4117;53.622;9.958;2024-01-15T11:24:36;1.20;1.00
8152;DHT22;4117;53.622;9.958;2024-01-15T11:27:03;1.20;1.00
8152;DHT22;4117;53.622;9.958;2024-01-15T11:29:31;1.20;1.00
8152;DHT22;4117;53.622;9.958;2024-01-15T11:32:01;1.20;1.00
8152;DHT22;4117;53.622;9.958;2024-01-15T11:34:53;1.20;1.00
8152;DHT22;4117;53.622;9.958;2024-01-15T11:37:24;1.20;1.00
8152;DHT22;4117;53.622;9.958;2024-01-15T11:39:52;1.30;1.00
8152;DHT22;4117;53.622;9.958;2024-01-15T11:42:21;1.30;1.00
8152;DHT22;4117;53.622;9.958;2024-01-15T11:44:49;1.30;1.00
8152;DHT22;4117;53.622;9.958;2024-01-15T11:47:31;1.20;1.00
8152;DHT22;4117;53.622;9.958;2024-01-15T11:50:06;1.30;1.00
8152;DHT22;4117;53.622;9.958;2024-01-15T11:52:35;1.30;1.00
8152;DHT22;4117;53.622;9.958;2024-01-15T11:55:10;1.30;1.00
8152;DHT22;4117;53.622;9.958;2024-01-15T11:57:41;1.30;1.00
8152;DHT22;4117;53.622;9.958;2024-01-15T12:00:10;1.30;1.00
8152;DHT22;4117;53.622;9.958;2024-01-15T12:02:38;1.40;1.00
8152;DHT22;4117;53.622;9.958;2024-01-15T12:05:07;1.40;1.00
8152;DHT22;4117;53.622;9.958;2024-01-15T12:07:34;1.30;1.00
8152;DHT22;4117;53.622;9.958;2024-01-15T12:10:01;1.40;1.00
8152;DHT22;4117;53.622;9.958;2024-01-15T12:12:47;1.40;1.00
8152;DHT22;4117;53.622;9.958;2024-01-15T12:15:15;1.40;1.00
8152;DHT22;4117;53.622;9.958;2024-01-15T12:17:42;1.40;1.00
8152;DHT22;4117;53.622;9.958;2024-01-15T12:20:11;1.40;1.00
8152;DHT22;4117;53.622;9.958;2024-01-15T12:22:39;1.40;1.00
8152;DHT22;4117;53.622;9.958;2024-01-15T12:25:06;1.40;1.00
8152;DHT22;4117;53.622;9.958;2024-01-15T12:27:34;1.40;1.00
8152;DHT22;4117;53.622;9.958;2024-01-15T12:30:01;1.40;1.00
8152;DHT22;4117;53.622;9.958;2024-01-15T12:32:29;1.30;1.00
8152;DHT22;4117;53.622;9.958;2024-01-15T12:34:56;1.40;1.00
8152;DHT22;4117;53.622;9.958;2024-01-15T12:37:24;1.30;1.00
8152;DHT22;4117;53.622;9.958;2024-01-15T12:39:52;1.30;1.00
8152;DHT22;4117;53.622;9.958;2024-01-15T12:42:21;1.30;1.00
8152;DHT22;4117;53.622;9.958;2024-01-15T12:44:48;1.30;1.00
8152;DHT22;4117;53.622;9.958;2024-01-15T12:47:15;1.30;1.00
8152;DHT22;4117;53.622;9.958;2024-01-15T12:49:46;1.30;1.00
8152;DHT22;4117;53.622;9.958;2024-01-15T12:52:14;1.30;1.00
8152;DHT22;4117;53.622;9.958;2024-01-15T12:54:43;1.30;1.00
8152;DHT22;4117;53.622;9.958;2024-01-15T12:57:10;1.40;1.00
8152;DHT22;4117;53.622;9.958;2024-01-15T12:59:36;1.40;1.00
8152;DHT22;4117;53.622;9.958;2024-01-15T13:02:04;1.40;1.00
8152;DHT22;4117;53.622;9.958;2024-01-15T13:04:31;1.40;1.00
8152;DHT22;4117;53.622;9.958;2024-01-15T13:06:57;1.40;1.00
8152;DHT22;4117;53.622;9.958;2024-01-15T13:09:24;1.40;1.00
8152;DHT22;4117;53.622;9.958;2024-01-15T13:11:53;1.30;1.00
8152;DHT22;4117;53.622;9.958;2024-01-15T13:14:20;1.30;1.00
8152;DHT22;4117;53.622;9.958;2024-01-15T13:16:47;1.40;1.00
8152;DHT22;4117;53.622;9.958;2024-01-15T13:19:14;1.40;1.00
8152;DHT22;4117;53.622;9.958;2024-01-15T13:21:41;1.30;1.00
8152;DHT22;4117;53.622;9.958;2024-01-15T13:24:08;1.30;1.00
8152;DHT22;4117;53.622;9.958;2024-01-15T13:26:36;1.30;1.00
8152;DHT22;4117;53.622;9.958;2024-01-15T13:29:05;1.40;1.00
8152;DHT22;4117;53.622;9.958;2024-01-15T13:31:32;1.40;1.00
8152;DHT22;4117;53.622;9.958;2024-01-15T13:33:59;1.30;1.00
8152;DHT22;4117;53.622;9.958;2024-01-15T13:36:27;1.40;1.00
8152;DHT22;4117;53.622;9.958;2024-01-15T13:38:54;1.40;1.00
8152;DHT22;4117;53.622;9.958;2024-01-15T13:41:21;1.40;1.00
8152;DHT22;4117;53.622;9.958;2024-01-15T13:43:53;1.40;1.00
8152;DHT22;4117;53.622;9.958;2024-01-15T13:46:24;1.30;1.00
8152;DHT22;4117;53.622;9.958;2024-01-15T13:48:52;1.30;1.00
8152;DHT22;4117;53.622;9.958;2024-01-15T13:51:19;1.20;1.00
8152;DHT22;4117;53.622;9.958;2024-01-15T13:53:46;1.20;1.00
8152;DHT22;4117;53.622;9.958;2024-01-15T13:56:14;1.20;1.00
8152;DHT22;4117;53.622;9.958;2024-01-15T13:58:42;1.20;1.00
8152;DHT22;4117;53.622;9.958;2024-01-15T14:01:09;1.20;1.00
8152;DHT22;4117;53.622;9.958;2024-01-15T14:03:37;1.30;1.00
8152;DHT22;4117;53.622;9.958;2024-01-15T14:06:05;1.20;1.00
8152;DHT22;4117;53.622;9.958;2024-01-15T14:08:34;1.30;1.00
8152;DHT22;4117;53.622;9.958;2024-01-15T14:11:02;1.30;1.00
8152;DHT22;4117;53.622;9.958;2024-01-15T14:13:29;1.30;1.00
8152;DHT22;4117;53.622;9.958;2024-01-15T14:15:56;1.30;1.00
8152;DHT22;4117;53.622;9.958;2024-01-15T14:18:23;1.30;1.00
8152;DHT22;4117;53.622;9.958;2024-01-15T14:20:51;1.30;1.00
8152;DHT22;4117;53.622;9.958;2024-01-15T14:23:19;1.30;1.00
8152;DHT22;4117;53.622;9.958;2024-01-15T14:25:46;1.20;1.00
8152;DHT22;4117;53.622;9.958;2024-01-15T14:28:12;1.30;1.00
8152;DHT22;4117;53.622;9.958;2024-01-15T14:30:39;1.20;1.00
8152;DHT22;4117;53.622;9.958;2024-01-15T14:33:06;1.20;1.00
8152;DHT22;4117;53.622;9.958;2024-01-15T14:35:33;1.20;1.00
8152;DHT22;4117;53.622;9.958;2024-01-15T14:38:02;1.10;1.00
8152;DHT22;4117;53.622;9.958;2024-01-15T14:40:29;1.10;1.00
8152;DHT22;4117;53.622;9.958;2024-01-15T14:42:56;0.90;1.00
8152;DHT22;4117;53.622;9.958;2024-01-15T14:45:23;1.00;1.00
8152;DHT22;4117;53.622;9.958;2024-01-15T14:47:52;1.10;1.00
8152;DHT22;4117;53.622;9.958;2024-01-15T14:50:19;1.00;1.00
8152;DHT22;4117;53.622;9.958;2024-01-15T14:52:46;1.00;1.00
8152;DHT22;4117;53.622;9.958;2024-01-15T14:55:15;1.00;1.00
8152;DHT22;4117;53.622;9.958;2024-01-15T14:57:42;1.00;1.00
8152;DHT22;4117;53.622;9.958;2024-01-15T15:00:09;1.00;1.00
8152;DHT22;4117;53.622;9.958;2024-01-15T15:02:38;1.00;1.00
8152;DHT22;4117;53.622;9.958;2024-01-15T15:05:05;1.00;1.00
8152;DHT22;4117;53.622;9.958;2024-01-15T15:07:32;0.90;1.00
8152;DHT22;4117;53.622;9.958;2024-01-15T15:10:02;0.90;1.00
8152;DHT22;4117;53.622;9.958;2024-01-15T15:12:31;0.90;1.00
8152;DHT22;4117;53.622;9.958;2024-01-15T15:14:59;0.90;1.00
8152;DHT22;4117;53.622;9.958;2024-01-15T15:17:26;0.90;1.00
8152;DHT22;4117;53.622;9.958;2024-01-15T15:19:52;0.80;1.00
8152;DHT22;4117;53.622;9.958;2024-01-15T15:22:20;0.80;1.00
8152;DHT22;4117;53.622;9.958;2024-01-15T15:24:47;0.90;1.00
8152;DHT22;4117;53.622;9.958;2024-01-15T15:27:14;0.80;1.00
8152;DHT22;4117;53.622;9.958;2024-01-15T15:29:42;0.80;1.00
8152;DHT22;4117;53.622;9.958;2024-01-15T15:32:09;0.70;1.00
8152;DHT22;4117;53.622;9.958;2024-01-15T15:34:38;0.70;1.00
8152;DHT22;4117;53.622;9.958;2024-01-15T15:37:05;0.80;1.00
8152;DHT22;4117;53.622;9.958;2024-01-15T15:39:32;0.80;1.00
8152;DHT22;4117;53.622;9.958;2024-01-15T15:41:59;0.80;1.00
8152;DHT22;4117;53.622;9.958;2024-01-15T15:44:26;0.70;1.00
8152;DHT22;4117;53.622;9.958;2024-01-15T15:46:54;0.70;1.00
8152;DHT22;4117;53.622;9.958;2024-01-15T15:49:21;0.70;1.00
8152;DHT22;4117;53.622;9.958;2024-01-15T15:51:48;0.70;1.00
8152;DHT22;4117;53.622;9.958;2024-01-15T15:54:15;0.60;1.00
8152;DHT22;4117;53.622;9.958;2024-01-15T15:56:42;0.60;1.00
8152;DHT22;4117;53.622;9.958;2024-01-15T15:59:13;0.60;1.00
8152;DHT22;4117;53.622;9.958;2024-01-15T16:01:40;0.60;1.00
8152;DHT22;4117;53.622;9.958;2024-01-15T16:04:08;0.60;1.00
8152;DHT22;4117;53.622;9.958;2024-01-15T16:06:35;0.60;1.00
8152;DHT22;4117;53.622;9.958;2024-01-15T16:09:01;0.50;1.00
8152;DHT22;4117;53.622;9.958;2024-01-15T16:11:29;0.50;1.00
8152;DHT22;4117;53.622;9.958;2024-01-15T16:13:56;0.50;1.00
8152;DHT22;4117;53.622;9.958;2024-01-15T16:16:23;0.50;1.00
8152;DHT22;4117;53.622;9.958;2024-01-15T16:18:50;0.60;1.00
8152;DHT22;4117;53.622;9.958;2024-01-15T16:21:18;0.60;1.00
8152;DHT22;4117;53.622;9.958;2024-01-15T16:23:45;0.60;1.00
8152;DHT22;4117;53.622;9.958;2024-01-15T16:26:12;0.50;1.00
8152;DHT22;4117;53.622;9.958;2024-01-15T16:28:40;0.50;1.00
8152;DHT22;4117;53.622;9.958;2024-01-15T16:31:06;0.50;1.00
8152;DHT22;4117;53.622;9.958;2024-01-15T16:33:33;0.50;1.00
8152;DHT22;4117;53.622;9.958;2024-01-15T16:36:00;0.60;1.00